Terminal Aerodrome Forecast
Issued by NWS

Home | Current Version | Previous Version | Text Only | Print | Product List | Glossary On
Versions: 1 2 3 4 5 6 7 8 9 10 11 12 13
000
FTUS43 KIND 040520
TAFHUF
TAF
KHUF 040520Z 0406/0506 00000KT P6SM FEW100
     FM041000 32001KT 5SM BR SKC
     FM041300 27004KT P6SM SCT040
     FM050300 00000KT P6SM SKC=

USA.gov is the U.S. government's official web portal to all federal, state and local government web resources and services.